sensor_id;sensor_type;location;lat;lon;timestamp;pressure;altitude;pressure_sealevel;temperature;humidity
13952;BME280;39535;52.192;9.886;2023-05-13T00:00:40;101217.81;;;14.87;65.07
13952;BME280;39535;52.192;9.886;2023-05-13T00:03:06;101221.34;;;14.84;65.30
13952;BME280;39535;52.192;9.886;2023-05-13T00:05:32;101222.25;;;14.85;65.42
13952;BME280;39535;52.192;9.886;2023-05-13T00:07:59;101220.50;;;14.84;64.99
13952;BME280;39535;52.192;9.886;2023-05-13T00:10:31;101226.75;;;14.78;64.85
13952;BME280;39535;52.192;9.886;2023-05-13T00:12:57;101236.50;;;14.75;64.58
13952;BME280;39535;52.192;9.886;2023-05-13T00:15:25;101254.97;;;14.72;64.64
13952;BME280;39535;52.192;9.886;2023-05-13T00:17:52;101261.03;;;14.75;63.78
13952;BME280;39535;52.192;9.886;2023-05-13T00:20:19;101255.84;;;14.70;65.40
13952;BME280;39535;52.192;9.886;2023-05-13T00:22:45;101251.56;;;14.66;64.86
13952;BME280;39535;52.192;9.886;2023-05-13T00:25:12;101247.25;;;14.64;64.89
13952;BME280;39535;52.192;9.886;2023-05-13T00:27:38;101265.81;;;14.56;64.53
13952;BME280;39535;52.192;9.886;2023-05-13T00:30:06;101257.94;;;14.55;65.63
13952;BME280;39535;52.192;9.886;2023-05-13T00:32:34;101245.16;;;14.39;65.39
13952;BME280;39535;52.192;9.886;2023-05-13T00:35:00;101247.72;;;14.41;65.10
13952;BME280;39535;52.192;9.886;2023-05-13T00:37:26;101246.88;;;14.40;65.23
13952;BME280;39535;52.192;9.886;2023-05-13T00:39:53;101237.31;;;14.38;65.54
13952;BME280;39535;52.192;9.886;2023-05-13T00:42:19;101240.81;;;14.37;67.16
13952;BME280;39535;52.192;9.886;2023-05-13T00:44:46;101206.91;;;14.26;67.32
13952;BME280;39535;52.192;9.886;2023-05-13T00:47:12;101204.28;;;14.26;66.59
13952;BME280;39535;52.192;9.886;2023-05-13T00:49:40;101206.84;;;14.29;66.55
13952;BME280;39535;52.192;9.886;2023-05-13T00:52:06;101228.91;;;14.20;65.14
13952;BME280;39535;52.192;9.886;2023-05-13T00:54:33;101233.31;;;14.20;65.58
13952;BME280;39535;52.192;9.886;2023-05-13T00:56:59;101246.41;;;14.21;65.27
13952;BME280;39535;52.192;9.886;2023-05-13T00:59:28;101263.22;;;14.11;64.87
13952;BME280;39535;52.192;9.886;2023-05-13T01:02:02;101265.00;;;14.10;64.73
13952;BME280;39535;52.192;9.886;2023-05-13T01:04:35;101258.06;;;14.08;65.84
13952;BME280;39535;52.192;9.886;2023-05-13T01:07:11;101233.66;;;14.03;66.32
13952;BME280;39535;52.192;9.886;2023-05-13T01:09:49;101225.03;;;13.98;67.32
13952;BME280;39535;52.192;9.886;2023-05-13T01:12:21;101210.09;;;14.00;66.94
13952;BME280;39535;52.192;9.886;2023-05-13T01:14:55;101230.28;;;13.96;65.36
13952;BME280;39535;52.192;9.886;2023-05-13T01:17:31;101238.16;;;13.96;65.98
13952;BME280;39535;52.192;9.886;2023-05-13T01:19:59;101223.28;;;13.97;67.37
13952;BME280;39535;52.192;9.886;2023-05-13T01:22:29;101205.81;;;13.96;68.59
13952;BME280;39535;52.192;9.886;2023-05-13T01:24:56;101173.53;;;13.90;69.08
13952;BME280;39535;52.192;9.886;2023-05-13T01:27:22;101154.34;;;13.88;69.24
13952;BME280;39535;52.192;9.886;2023-05-13T01:29:49;101147.47;;;13.81;68.89
13952;BME280;39535;52.192;9.886;2023-05-13T01:32:17;101145.66;;;13.85;69.68
13952;BME280;39535;52.192;9.886;2023-05-13T01:34:44;101137.09;;;13.77;68.79
13952;BME280;39535;52.192;9.886;2023-05-13T01:37:12;101139.84;;;13.70;69.63
13952;BME280;39535;52.192;9.886;2023-05-13T01:39:40;101142.47;;;13.70;68.38
13952;BME280;39535;52.192;9.886;2023-05-13T01:42:07;101160.03;;;13.65;67.94
13952;BME280;39535;52.192;9.886;2023-05-13T01:44:33;101173.22;;;13.64;68.30
13952;BME280;39535;52.192;9.886;2023-05-13T01:47:00;101175.03;;;13.60;68.47
13952;BME280;39535;52.192;9.886;2023-05-13T01:49:26;101166.31;;;13.58;69.37
13952;BME280;39535;52.192;9.886;2023-05-13T01:51:53;101159.41;;;13.54;69.47
13952;BME280;39535;52.192;9.886;2023-05-13T01:54:19;101161.97;;;13.57;68.61
13952;BME280;39535;52.192;9.886;2023-05-13T01:56:47;101163.84;;;13.50;68.56
13952;BME280;39535;52.192;9.886;2023-05-13T01:59:13;101186.75;;;13.41;67.44
13952;BME280;39535;52.192;9.886;2023-05-13T02:01:40;101182.44;;;13.38;69.07
13952;BME280;39535;52.192;9.886;2023-05-13T02:04:06;101158.03;;;13.35;70.08
13952;BME280;39535;52.192;9.886;2023-05-13T02:06:33;101138.00;;;13.32;70.34
13952;BME280;39535;52.192;9.886;2023-05-13T02:08:59;101134.47;;;13.31;70.32
13952;BME280;39535;52.192;9.886;2023-05-13T02:11:25;101124.06;;;13.27;70.25
13952;BME280;39535;52.192;9.886;2023-05-13T02:13:53;101128.47;;;13.25;69.59
13952;BME280;39535;52.192;9.886;2023-05-13T02:16:20;101134.78;;;13.15;70.47
13952;BME280;39535;52.192;9.886;2023-05-13T02:18:47;101135.63;;;13.15;69.98
13952;BME280;39535;52.192;9.886;2023-05-13T02:21:13;101132.19;;;13.13;70.15
13952;BME280;39535;52.192;9.886;2023-05-13T02:23:39;101111.34;;;13.05;71.04
13952;BME280;39535;52.192;9.886;2023-05-13T02:26:06;101107.78;;;13.09;71.32
13952;BME280;39535;52.192;9.886;2023-05-13T02:28:32;101100.75;;;13.10;71.63
13952;BME280;39535;52.192;9.886;2023-05-13T02:31:00;101096.44;;;13.09;71.83
13952;BME280;39535;52.192;9.886;2023-05-13T02:33:27;101095.63;;;13.05;71.73
13952;BME280;39535;52.192;9.886;2023-05-13T02:35:53;101096.63;;;12.98;71.70
13952;BME280;39535;52.192;9.886;2023-05-13T02:38:19;101101.06;;;12.95;71.09
13952;BME280;39535;52.192;9.886;2023-05-13T02:40:46;101103.72;;;12.91;71.44
13952;BME280;39535;52.192;9.886;2023-05-13T02:43:12;101103.72;;;12.93;71.61
13952;BME280;39535;52.192;9.886;2023-05-13T02:45:39;101103.94;;;12.81;71.95
13952;BME280;39535;52.192;9.886;2023-05-13T02:48:07;101096.97;;;12.80;72.16
13952;BME280;39535;52.192;9.886;2023-05-13T02:50:35;101098.69;;;12.81;71.47
13952;BME280;39535;52.192;9.886;2023-05-13T02:53:01;101105.72;;;12.79;71.49
13952;BME280;39535;52.192;9.886;2023-05-13T02:55:27;101097.03;;;12.77;72.08
13952;BME280;39535;52.192;9.886;2023-05-13T02:57:54;101096.94;;;12.81;72.32
13952;BME280;39535;52.192;9.886;2023-05-13T03:00:21;101085.63;;;12.78;73.38
13952;BME280;39535;52.192;9.886;2023-05-13T03:02:47;101074.31;;;12.77;72.60
13952;BME280;39535;52.192;9.886;2023-05-13T03:05:15;101082.94;;;12.82;72.13
13952;BME280;39535;52.192;9.886;2023-05-13T03:07:41;101095.25;;;12.79;71.94
13952;BME280;39535;52.192;9.886;2023-05-13T03:10:08;101102.16;;;12.83;72.02
13952;BME280;39535;52.192;9.886;2023-05-13T03:12:35;101095.38;;;12.71;72.76
13952;BME280;39535;52.192;9.886;2023-05-13T03:15:02;101098.03;;;12.66;72.37
13952;BME280;39535;52.192;9.886;2023-05-13T03:17:28;101100.78;;;12.60;73.83
13952;BME280;39535;52.192;9.886;2023-05-13T03:19:56;101091.25;;;12.56;73.13
13952;BME280;39535;52.192;9.886;2023-05-13T03:22:24;101079.94;;;12.54;73.65
13952;BME280;39535;52.192;9.886;2023-05-13T03:24:50;101082.53;;;12.54;73.55
13952;BME280;39535;52.192;9.886;2023-05-13T03:27:17;101081.72;;;12.52;73.97
13952;BME280;39535;52.192;9.886;2023-05-13T03:29:43;101061.69;;;12.48;74.47
13952;BME280;39535;52.192;9.886;2023-05-13T03:32:10;101051.31;;;12.45;75.04
13952;BME280;39535;52.192;9.886;2023-05-13T03:34:36;101042.56;;;12.44;75.04
13952;BME280;39535;52.192;9.886;2023-05-13T03:37:03;101033.03;;;12.40;75.17
13952;BME280;39535;52.192;9.886;2023-05-13T03:39:31;101027.97;;;12.29;76.02
13952;BME280;39535;52.192;9.886;2023-05-13T03:41:57;101024.44;;;12.32;76.42
13952;BME280;39535;52.192;9.886;2023-05-13T03:44:24;101008.81;;;12.29;76.00
13952;BME280;39535;52.192;9.886;2023-05-13T03:46:50;101017.56;;;12.26;76.29
13952;BME280;39535;52.192;9.886;2023-05-13T03:49:16;101001.84;;;12.26;76.67
13952;BME280;39535;52.192;9.886;2023-05-13T03:51:43;101004.53;;;12.23;76.50
13952;BME280;39535;52.192;9.886;2023-05-13T03:54:10;101008.16;;;12.15;76.95
13952;BME280;39535;52.192;9.886;2023-05-13T03:56:37;100999.34;;;12.19;77.60
13952;BME280;39535;52.192;9.886;2023-05-13T03:59:04;100978.53;;;12.12;78.23
13952;BME280;39535;52.192;9.886;2023-05-13T04:01:30;100985.50;;;12.12;77.71
13952;BME280;39535;52.192;9.886;2023-05-13T04:03:56;100987.16;;;12.18;77.97
13952;BME280;39535;52.192;9.886;2023-05-13T04:06:23;100979.34;;;12.15;77.25
13952;BME280;39535;52.192;9.886;2023-05-13T04:08:49;100986.16;;;12.25;78.04
13952;BME280;39535;52.192;9.886;2023-05-13T04:11:16;100973.03;;;12.28;78.98
13952;BME280;39535;52.192;9.886;2023-05-13T04:13:44;100979.84;;;12.37;79.08
13952;BME280;39535;52.192;9.886;2023-05-13T04:16:11;100966.75;;;12.38;78.96
13952;BME280;39535;52.192;9.886;2023-05-13T04:18:38;100975.50;;;12.37;78.56
13952;BME280;39535;52.192;9.886;2023-05-13T04:21:05;100984.22;;;12.38;78.32
13952;BME280;39535;52.192;9.886;2023-05-13T04:23:32;100988.53;;;12.39;78.44
13952;BME280;39535;52.192;9.886;2023-05-13T04:25:58;100994.66;;;12.41;78.40
13952;BME280;39535;52.192;9.886;2023-05-13T04:28:24;101001.47;;;12.48;77.90
13952;BME280;39535;52.192;9.886;2023-05-13T04:30:52;101016.22;;;12.54;77.29
13952;BME280;39535;52.192;9.886;2023-05-13T04:33:19;101031.84;;;12.58;77.19
13952;BME280;39535;52.192;9.886;2023-05-13T04:35:45;101045.88;;;12.56;77.16
13952;BME280;39535;52.192;9.886;2023-05-13T04:38:12;101052.75;;;12.61;77.51
13952;BME280;39535;52.192;9.886;2023-05-13T04:40:38;101034.56;;;12.52;78.84
13952;BME280;39535;52.192;9.886;2023-05-13T04:43:05;101025.94;;;12.47;78.90
13952;BME280;39535;52.192;9.886;2023-05-13T04:45:31;101005.72;;;12.55;79.22
13952;BME280;39535;52.192;9.886;2023-05-13T04:47:59;101011.94;;;12.49;78.86
13952;BME280;39535;52.192;9.886;2023-05-13T04:50:25;101026.81;;;12.46;78.30
13952;BME280;39535;52.192;9.886;2023-05-13T04:52:52;101036.44;;;12.47;78.39
13952;BME280;39535;52.192;9.886;2023-05-13T04:55:18;101032.03;;;12.49;78.94
13952;BME280;39535;52.192;9.886;2023-05-13T04:57:45;101029.22;;;12.58;78.37
13952;BME280;39535;52.192;9.886;2023-05-13T05:00:12;101037.91;;;12.62;78.75
13952;BME280;39535;52.192;9.886;2023-05-13T05:02:39;101053.63;;;12.60;78.56
13952;BME280;39535;52.192;9.886;2023-05-13T05:05:07;101069.22;;;12.66;78.09
13952;BME280;39535;52.192;9.886;2023-05-13T05:07:34;101079.69;;;12.68;78.09
13952;BME280;39535;52.192;9.886;2023-05-13T05:10:05;101078.84;;;12.67;77.96
13952;BME280;39535;52.192;9.886;2023-05-13T05:12:31;101095.28;;;12.76;76.42
13952;BME280;39535;52.192;9.886;2023-05-13T05:14:58;101147.69;;;12.76;73.99
13952;BME280;39535;52.192;9.886;2023-05-13T05:17:24;101176.38;;;12.82;74.76
13952;BME280;39535;52.192;9.886;2023-05-13T05:19:51;101165.97;;;12.79;75.41
13952;BME280;39535;52.192;9.886;2023-05-13T05:22:20;101190.28;;;12.88;74.15
13952;BME280;39535;52.192;9.886;2023-05-13T05:24:47;101203.31;;;12.91;73.71
13952;BME280;39535;52.192;9.886;2023-05-13T05:27:13;101208.56;;;12.90;74.96
13952;BME280;39535;52.192;9.886;2023-05-13T05:29:40;101196.34;;;12.90;75.40
13952;BME280;39535;52.192;9.886;2023-05-13T05:32:07;101218.94;;;12.98;73.55
13952;BME280;39535;52.192;9.886;2023-05-13T05:34:33;101211.09;;;12.96;75.10
13952;BME280;39535;52.192;9.886;2023-05-13T05:37:00;101211.06;;;12.99;74.33
13952;BME280;39535;52.192;9.886;2023-05-13T05:39:27;101258.97;;;13.06;72.16
13952;BME280;39535;52.192;9.886;2023-05-13T05:41:54;101285.16;;;13.09;71.40
13952;BME280;39535;52.192;9.886;2023-05-13T05:44:20;101300.03;;;13.07;71.97
13952;BME280;39535;52.192;9.886;2023-05-13T05:46:47;101312.28;;;13.06;71.84
13952;BME280;39535;52.192;9.886;2023-05-13T05:49:13;101305.28;;;13.08;72.35
13952;BME280;39535;52.192;9.886;2023-05-13T05:51:40;101313.94;;;13.12;72.93
13952;BME280;39535;52.192;9.886;2023-05-13T05:54:06;101320.84;;;13.18;70.64
13952;BME280;39535;52.192;9.886;2023-05-13T05:56:34;101333.91;;;13.21;71.32
13952;BME280;39535;52.192;9.886;2023-05-13T05:59:00;101340.81;;;13.26;70.47
13952;BME280;39535;52.192;9.886;2023-05-13T06:01:28;101371.38;;;13.32;69.49
13952;BME280;39535;52.192;9.886;2023-05-13T06:03:57;101382.63;;;13.37;68.69
13952;BME280;39535;52.192;9.886;2023-05-13T06:06:24;101400.06;;;13.40;69.20
13952;BME280;39535;52.192;9.886;2023-05-13T06:08:50;101391.31;;;13.42;70.09
13952;BME280;39535;52.192;9.886;2023-05-13T06:11:17;101386.00;;;13.45;70.09
13952;BME280;39535;52.192;9.886;2023-05-13T06:13:44;101383.34;;;13.47;70.50
13952;BME280;39535;52.192;9.886;2023-05-13T06:16:11;101373.66;;;13.52;71.17
13952;BME280;39535;52.192;9.886;2023-05-13T06:18:37;101349.88;;;13.61;70.95
13952;BME280;39535;52.192;9.886;2023-05-13T06:21:04;101360.28;;;13.67;70.38
13952;BME280;39535;52.192;9.886;2023-05-13T06:23:30;101368.09;;;13.72;69.36
13952;BME280;39535;52.192;9.886;2023-05-13T06:25:57;101393.41;;;13.73;68.96
13952;BME280;39535;52.192;9.886;2023-05-13T06:28:24;101405.69;;;13.71;69.54
13952;BME280;39535;52.192;9.886;2023-05-13T06:30:52;101416.19;;;13.73;69.22
13952;BME280;39535;52.192;9.886;2023-05-13T06:33:18;101417.03;;;13.75;69.18
13952;BME280;39535;52.192;9.886;2023-05-13T06:35:45;101405.59;;;13.77;69.27
13952;BME280;39535;52.192;9.886;2023-05-13T06:38:13;101405.47;;;13.85;69.04
13952;BME280;39535;52.192;9.886;2023-05-13T06:40:41;101403.63;;;13.92;68.85
13952;BME280;39535;52.192;9.886;2023-05-13T06:43:08;101407.03;;;13.97;68.98
13952;BME280;39535;52.192;9.886;2023-05-13T06:45:36;101415.72;;;14.00;68.67
13952;BME280;39535;52.192;9.886;2023-05-13T06:48:04;101414.75;;;14.04;69.17
13952;BME280;39535;52.192;9.886;2023-05-13T06:50:31;101410.34;;;14.08;69.27
13952;BME280;39535;52.192;9.886;2023-05-13T06:52:57;101408.47;;;14.13;69.52
13952;BME280;39535;52.192;9.886;2023-05-13T06:55:24;101402.31;;;14.16;68.80
13952;BME280;39535;52.192;9.886;2023-05-13T06:57:50;101408.38;;;14.19;69.34
13952;BME280;39535;52.192;9.886;2023-05-13T07:00:17;101394.25;;;14.25;69.61
13952;BME280;39535;52.192;9.886;2023-05-13T07:02:44;101388.94;;;14.29;69.53
13952;BME280;39535;52.192;9.886;2023-05-13T07:05:11;101401.22;;;14.27;69.49
13952;BME280;39535;52.192;9.886;2023-05-13T07:07:38;101385.38;;;14.32;69.77
13952;BME280;39535;52.192;9.886;2023-05-13T07:10:05;101364.13;;;14.43;71.23
13952;BME280;39535;52.192;9.886;2023-05-13T07:12:31;101359.69;;;14.46;70.83
13952;BME280;39535;52.192;9.886;2023-05-13T07:14:58;101330.63;;;14.54;70.56
13952;BME280;39535;52.192;9.886;2023-05-13T07:17:24;101336.75;;;14.56;70.40
13952;BME280;39535;52.192;9.886;2023-05-13T07:19:51;101355.91;;;14.63;69.43
13952;BME280;39535;52.192;9.886;2023-05-13T07:22:19;101359.28;;;14.68;70.41
13952;BME280;39535;52.192;9.886;2023-05-13T07:24:45;101360.94;;;14.72;69.56
13952;BME280;39535;52.192;9.886;2023-05-13T07:27:11;101376.66;;;14.75;69.09
13952;BME280;39535;52.192;9.886;2023-05-13T07:29:38;101359.91;;;14.81;70.21
13952;BME280;39535;52.192;9.886;2023-05-13T07:32:05;101366.72;;;14.89;70.08
13952;BME280;39535;52.192;9.886;2023-05-13T07:34:32;101363.19;;;14.91;69.91
13952;BME280;39535;52.192;9.886;2023-05-13T07:36:58;101367.44;;;14.96;68.87
13952;BME280;39535;52.192;9.886;2023-05-13T07:39:26;101379.50;;;15.06;68.89
13952;BME280;39535;52.192;9.886;2023-05-13T07:41:52;101392.53;;;15.11;68.33
13952;BME280;39535;52.192;9.886;2023-05-13T07:44:19;101394.19;;;15.15;68.58
13952;BME280;39535;52.192;9.886;2023-05-13T07:46:46;101413.44;;;15.17;67.88
13952;BME280;39535;52.192;9.886;2023-05-13T07:49:13;101403.72;;;15.21;68.59
13952;BME280;39535;52.192;9.886;2023-05-13T07:51:39;101404.41;;;15.27;68.93
13952;BME280;39535;52.192;9.886;2023-05-13T07:54:08;101400.75;;;15.35;68.96
13952;BME280;39535;52.192;9.886;2023-05-13T07:56:36;101397.88;;;15.44;68.53
13952;BME280;39535;52.192;9.886;2023-05-13T07:59:03;101377.59;;;15.51;69.30
13952;BME280;39535;52.192;9.886;2023-05-13T08:01:29;101386.22;;;15.56;68.39
13952;BME280;39535;52.192;9.886;2023-05-13T08:03:56;101402.72;;;15.62;68.56
13952;BME280;39535;52.192;9.886;2023-05-13T08:06:22;101364.91;;;15.66;72.48
13952;BME280;39535;52.192;9.886;2023-05-13T08:08:49;101347.28;;;15.70;70.53
13952;BME280;39535;52.192;9.886;2023-05-13T08:11:15;101362.03;;;15.77;67.97
13952;BME280;39535;52.192;9.886;2023-05-13T08:13:43;101416.22;;;15.86;66.62
13952;BME280;39535;52.192;9.886;2023-05-13T08:16:09;101433.69;;;15.90;67.26
13952;BME280;39535;52.192;9.886;2023-05-13T08:18:35;101447.56;;;15.95;67.24
13952;BME280;39535;52.192;9.886;2023-05-13T08:21:02;101434.34;;;15.98;67.19
13952;BME280;39535;52.192;9.886;2023-05-13T08:23:29;101449.09;;;16.05;66.78
13952;BME280;39535;52.192;9.886;2023-05-13T08:25:55;101466.44;;;16.13;65.54
13952;BME280;39535;52.192;9.886;2023-05-13T08:28:22;101487.34;;;16.20;65.29
13952;BME280;39535;52.192;9.886;2023-05-13T08:30:51;101504.88;;;16.21;64.64
13952;BME280;39535;52.192;9.886;2023-05-13T08:33:18;101522.34;;;16.25;64.44
13952;BME280;39535;52.192;9.886;2023-05-13T08:35:45;101531.13;;;16.24;63.98
13952;BME280;39535;52.192;9.886;2023-05-13T08:38:11;101552.09;;;16.29;63.06
13952;BME280;39535;52.192;9.886;2023-05-13T08:40:38;101577.56;;;16.30;62.76
13952;BME280;39535;52.192;9.886;2023-05-13T08:43:05;101594.06;;;16.37;62.63
13952;BME280;39535;52.192;9.886;2023-05-13T08:45:33;101584.19;;;16.45;63.61
13952;BME280;39535;52.192;9.886;2023-05-13T08:48:03;101580.44;;;16.55;63.04
13952;BME280;39535;52.192;9.886;2023-05-13T08:50:31;101589.09;;;16.60;64.10
13952;BME280;39535;52.192;9.886;2023-05-13T08:52:57;101595.97;;;16.66;61.35
13952;BME280;39535;52.192;9.886;2023-05-13T08:55:25;101621.19;;;16.76;61.66
13952;BME280;39535;52.192;9.886;2023-05-13T08:57:52;101620.16;;;16.85;62.38
13952;BME280;39535;52.192;9.886;2023-05-13T09:00:19;101599.78;;;16.90;62.74
13952;BME280;39535;52.192;9.886;2023-05-13T09:02:45;101606.63;;;16.97;62.31
13952;BME280;39535;52.192;9.886;2023-05-13T09:05:13;101604.69;;;17.04;61.92
13952;BME280;39535;52.192;9.886;2023-05-13T09:07:40;101621.28;;;17.07;61.95
13952;BME280;39535;52.192;9.886;2023-05-13T09:10:08;101617.59;;;17.15;62.82
13952;BME280;39535;52.192;9.886;2023-05-13T09:12:42;101598.03;;;17.22;62.46
13952;BME280;39535;52.192;9.886;2023-05-13T09:15:10;101614.69;;;17.24;63.23
13952;BME280;39535;52.192;9.886;2023-05-13T09:17:37;101591.56;;;17.32;61.68
13952;BME280;39535;52.192;9.886;2023-05-13T09:20:06;101610.84;;;17.36;61.91
13952;BME280;39535;52.192;9.886;2023-05-13T09:22:34;101595.59;;;17.45;62.28
13952;BME280;39535;52.192;9.886;2023-05-13T09:25:01;101606.00;;;17.50;61.61
13952;BME280;39535;52.192;9.886;2023-05-13T09:27:35;101611.16;;;17.56;61.63
13952;BME280;39535;52.192;9.886;2023-05-13T09:30:03;101582.00;;;17.59;63.39
13952;BME280;39535;52.192;9.886;2023-05-13T09:32:29;101553.50;;;17.71;64.00
13952;BME280;39535;52.192;9.886;2023-05-13T09:34:56;101554.13;;;17.79;61.98
13952;BME280;39535;52.192;9.886;2023-05-13T09:37:22;101589.16;;;17.85;62.82
13952;BME280;39535;52.192;9.886;2023-05-13T09:39:51;101606.63;;;17.90;60.72
13952;BME280;39535;52.192;9.886;2023-05-13T09:42:18;101615.25;;;17.96;60.92
13952;BME280;39535;52.192;9.886;2023-05-13T09:44:45;101626.59;;;18.00;60.03
13952;BME280;39535;52.192;9.886;2023-05-13T09:47:13;101652.00;;;18.04;59.84
13952;BME280;39535;52.192;9.886;2023-05-13T09:49:40;101657.88;;;18.14;59.59
13952;BME280;39535;52.192;9.886;2023-05-13T09:52:07;101659.41;;;18.21;59.41
13952;BME280;39535;52.192;9.886;2023-05-13T09:54:35;101667.13;;;18.27;57.79
13952;BME280;39535;52.192;9.886;2023-05-13T09:57:04;101713.50;;;18.37;57.12
13952;BME280;39535;52.192;9.886;2023-05-13T09:59:31;101747.84;;;18.39;57.57
13952;BME280;39535;52.192;9.886;2023-05-13T10:01:59;101754.69;;;18.46;56.93
13952;BME280;39535;52.192;9.886;2023-05-13T10:04:26;101762.34;;;18.55;56.71
13952;BME280;39535;52.192;9.886;2023-05-13T10:06:53;101696.94;;;18.60;57.64
13952;BME280;39535;52.192;9.886;2023-05-13T10:09:21;101718.75;;;18.67;58.63
13952;BME280;39535;52.192;9.886;2023-05-13T10:11:48;101736.00;;;18.79;56.67
13952;BME280;39535;52.192;9.886;2023-05-13T10:14:16;101722.72;;;18.82;58.13
13952;BME280;39535;52.192;9.886;2023-05-13T10:16:43;101741.88;;;18.89;55.45
13952;BME280;39535;52.192;9.886;2023-05-13T10:19:12;101756.75;;;18.93;55.90
13952;BME280;39535;52.192;9.886;2023-05-13T10:21:39;101783.97;;;18.96;53.86
13952;BME280;39535;52.192;9.886;2023-05-13T10:24:06;101829.69;;;19.01;54.01
13952;BME280;39535;52.192;9.886;2023-05-13T10:26:34;101838.41;;;19.05;53.35
13952;BME280;39535;52.192;9.886;2023-05-13T10:29:01;101848.81;;;19.11;53.86
13952;BME280;39535;52.192;9.886;2023-05-13T10:31:29;101806.03;;;19.23;55.83
13952;BME280;39535;52.192;9.886;2023-05-13T10:33:57;101765.31;;;19.28;55.76
13952;BME280;39535;52.192;9.886;2023-05-13T10:36:40;101776.50;;;19.36;52.52
13952;BME280;39535;52.192;9.886;2023-05-13T10:39:24;101860.91;;;19.47;50.96
13952;BME280;39535;52.192;9.886;2023-05-13T10:42:18;101945.44;;;19.53;49.41
13952;BME280;39535;52.192;9.886;2023-05-13T10:44:52;101991.38;;;19.52;49.29
13952;BME280;39535;52.192;9.886;2023-05-13T10:47:20;102036.31;;;19.55;49.03
13952;BME280;39535;52.192;9.886;2023-05-13T10:49:49;102046.75;;;19.59;47.82
13952;BME280;39535;52.192;9.886;2023-05-13T10:52:17;102073.81;;;19.71;47.92
13952;BME280;39535;52.192;9.886;2023-05-13T10:54:58;102075.31;;;19.79;48.53
13952;BME280;39535;52.192;9.886;2023-05-13T10:57:34;102062.75;;;19.86;46.89
13952;BME280;39535;52.192;9.886;2023-05-13T11:00:11;102127.03;;;19.93;46.66
13952;BME280;39535;52.192;9.886;2023-05-13T11:02:40;102128.47;;;20.03;46.29
13952;BME280;39535;52.192;9.886;2023-05-13T11:05:07;102164.56;;;20.07;45.92
13952;BME280;39535;52.192;9.886;2023-05-13T11:07:36;102173.13;;;20.17;45.16
13952;BME280;39535;52.192;9.886;2023-05-13T11:10:04;102195.88;;;20.24;46.05
13952;BME280;39535;52.192;9.886;2023-05-13T11:13:20;102107.75;;;20.42;50.43
13952;BME280;39535;52.192;9.886;2023-05-13T11:15:49;102016.84;;;20.64;47.31
13952;BME280;39535;52.192;9.886;2023-05-13T11:18:18;102045.59;;;20.76;47.30
13952;BME280;39535;52.192;9.886;2023-05-13T11:20:46;102061.81;;;20.92;47.38
13952;BME280;39535;52.192;9.886;2023-05-13T11:23:17;102060.31;;;21.09;46.73
13952;BME280;39535;52.192;9.886;2023-05-13T11:25:44;102071.25;;;21.25;47.34
13952;BME280;39535;52.192;9.886;2023-05-13T11:28:13;102055.09;;;21.54;47.17
13952;BME280;39535;52.192;9.886;2023-05-13T11:30:52;102052.13;;;22.49;41.79
13952;BME280;39535;52.192;9.886;2023-05-13T11:33:20;102192.16;;;23.95;39.25
13952;BME280;39535;52.192;9.886;2023-05-13T11:35:52;102321.84;;;25.64;36.43
13952;BME280;39535;52.192;9.886;2023-05-13T11:38:21;102436.13;;;27.11;33.22
13952;BME280;39535;52.192;9.886;2023-05-13T11:40:49;102518.66;;;28.44;32.47
13952;BME280;39535;52.192;9.886;2023-05-13T11:43:18;102577.59;;;29.48;31.33
13952;BME280;39535;52.192;9.886;2023-05-13T11:45:46;102629.28;;;30.22;29.56
13952;BME280;39535;52.192;9.886;2023-05-13T11:48:21;102622.47;;;31.07;30.17
13952;BME280;39535;52.192;9.886;2023-05-13T11:50:49;102638.13;;;31.65;31.04
13952;BME280;39535;52.192;9.886;2023-05-13T11:53:18;102581.03;;;32.64;28.54
13952;BME280;39535;52.192;9.886;2023-05-13T11:55:46;102618.53;;;33.59;26.87
13952;BME280;39535;52.192;9.886;2023-05-13T11:58:13;102602.97;;;34.05;27.17
13952;BME280;39535;52.192;9.886;2023-05-13T12:00:40;102620.91;;;34.50;24.99
13952;BME280;39535;52.192;9.886;2023-05-13T12:03:09;102638.31;;;34.47;26.05
13952;BME280;39535;52.192;9.886;2023-05-13T12:05:37;102677.91;;;34.17;23.81
13952;BME280;39535;52.192;9.886;2023-05-13T12:08:05;102652.53;;;33.41;24.03
13952;BME280;39535;52.192;9.886;2023-05-13T12:10:32;102666.19;;;32.83;24.99
13952;BME280;39535;52.192;9.886;2023-05-13T12:12:59;102639.50;;;32.08;26.39
13952;BME280;39535;52.192;9.886;2023-05-13T12:15:27;102604.97;;;31.63;28.86
13952;BME280;39535;52.192;9.886;2023-05-13T12:17:53;102519.47;;;31.26;28.66
13952;BME280;39535;52.192;9.886;2023-05-13T12:20:21;102489.38;;;30.70;26.80
13952;BME280;39535;52.192;9.886;2023-05-13T12:22:51;102527.00;;;30.07;27.95
13952;BME280;39535;52.192;9.886;2023-05-13T12:25:41;102495.03;;;29.76;27.97
13952;BME280;39535;52.192;9.886;2023-05-13T12:28:11;102484.34;;;29.34;27.97
13952;BME280;39535;52.192;9.886;2023-05-13T12:30:39;102487.75;;;28.95;28.10
13952;BME280;39535;52.192;9.886;2023-05-13T12:33:12;102465.34;;;28.67;28.53
13952;BME280;39535;52.192;9.886;2023-05-13T12:35:39;102457.31;;;28.22;29.28
13952;BME280;39535;52.192;9.886;2023-05-13T12:38:07;102439.88;;;27.85;29.25
13952;BME280;39535;52.192;9.886;2023-05-13T12:40:33;102424.16;;;27.48;30.46
13952;BME280;39535;52.192;9.886;2023-05-13T12:43:01;102387.50;;;27.33;31.14
13952;BME280;39535;52.192;9.886;2023-05-13T12:45:29;102362.16;;;27.23;31.00
13952;BME280;39535;52.192;9.886;2023-05-13T12:47:57;102341.13;;;26.85;32.48
13952;BME280;39535;52.192;9.886;2023-05-13T12:50:24;102334.28;;;26.47;30.47
13952;BME280;39535;52.192;9.886;2023-05-13T12:52:51;102354.97;;;26.12;31.90